Terminal Aerodrome Forecast
Issued by NWS Wilmington, OH

Current Version | Previous Version | Graphics & Text | Print | Product List | Glossary On
Versions: 1 2 3 4 5 6 7 8 9 10 11 12 13 14 15 16 17 18 19 20
000
FTUS41 KILN 252320
TAFCMH
TAF
KCMH 252320Z 2600/2624 23004KT P6SM FEW050 SCT150 BKN250
      TEMPO 2609/2613 5SM BR
     FM261500 30005KT P6SM VCSH BKN040
     FM262100 35005KT P6SM VCSH BKN040=

USA.gov is the U.S. government's official web portal to all federal, state and local government web resources and services.